BFIBOEING FIELD/KING COUNTY INTL
METARs for nearby airports:
N 0 21' KBFI 181953Z 15015KT 9SM -RA FEW035 BKN046 OVC085 13/12 A2973
SE 4 32' KRNT 181953Z 16009KT 10SM -RA FEW043 BKN070 OVC085 14/13 A2972
S 4 432' KSEA 181953Z 17015KT 7SM -RA SCT031 OVC060 14/12 A2972
W 18 443' KPWT 181956Z 20017G29KT 7SM -RA OVC004 12/12 A2970
SW 19 294' KTIW 181953Z 18016G22KT 8SM -RA SCT015 BKN050 OVC080 13/13 A2973
N 22 607' KPAE 181953Z 14021G31KT 10SM OVC018 13/11 A2970
S 24 322' KTCM 182011Z 18013KT 10SM -RA BKN042 14/14 A2974
S 25 537' KPLU 182015Z 18009G15KT 140V210 9SM -DZ FEW035 OVC047 15/13 A2975
S 29 305' KGRF 182000Z 15019G24KT 10SM -RA FEW030 OVC042 15/15 A2973
N 38 141' KAWO 181956Z VRB05G17KT 10SM OVC022 13/09 A2971
SW 38 272' KSHN 181953Z 17008G15KT 5SM -RA BR OVC017 13/12 A2971
SW 41 207' KOLM 182011Z 19018G25KT 2 1/2SM -RA BR OVC012 13/13 A2974
N 51 47' KNUW 181956Z 14027G37KT 8SM BKN020 OVC095 14/08 A2963
N 56 145' KBVS 182015Z 14013G26KT 10SM OVC020 14/11 A2962
NW 57 13' KNOW 182015Z 00000KT 4SM RA SCT049 BKN060 OVC095 08/07 A2951
SW 58 177' KCLS 182015Z 19014G19KT 6SM BR BKN014 BKN032 BKN038 14/13 A2979
NW 59 291' KCLM 181953Z 00000KT 2SM -RA BR FEW060 BKN075 OVC095 08/08 A2955
NW 66 112' KFHR 182000Z 14019G29KT 4SM RA BR BKN014 BKN036 OVC075 11/10 A2958
SW 74 17' KHQM 182006Z 17029G35KT 2 1/2SM -RA BR BKN014 BKN033 OVC065 14/14 A2972
N 74 34' KORS 182015Z 17020G31KT 3SM -RA FEW019 SCT030 BKN049 12/10 A2952
N 76 170' KBLI 181953Z 15024G36KT 5SM -RA SCT022 OVC095 13/10 A2956
E 78 1763' KELN 181953Z 00000KT 10SM BKN070 11/02 A2986
NW 80 64' CYYJ 182000Z 15020G28KT 1 1/2SM RA BR FEW003 BKN007 OVC035 10/10 A2952
E 85 1248' KEAT 181955Z 12006KT 10SM SCT075 SCT090 10/01 A2984
S 88 20' KKLS 181956Z 16011KT 10SM OVC015 14/12 A2986
SE 92 1098' KYKM 181953Z 08005KT 10SM SCT110 13/02 A2987
W 94 193' KUIL 182012Z 19017G33KT 3/4SM +RA BR OVC004 14/14 A2955
TAFs for nearby airports:
N 0 21' KBFI TAF KBFI 181732Z 1818/1918 16013G20KT P6SM -RA BKN040 OVC050
  FM182100 18020G30KT P6SM -RA BKN025 OVC035
  FM190300 19012G22KT 4SM RA BR BKN015 OVC020
  FM190900 18010KT 4SM -RA BKN015 OVC020
  FM191400 18008KT P6SM -RA BKN020 OVC040
S 4 432' KSEA TAF KSEA 181732Z 1818/1924 16013G20KT 5SM -RA BR BKN035 OVC050
  FM182100 18020G30KT P6SM -RA BKN025 OVC035
  FM190300 19012G22KT 4SM RA BR BKN015 OVC020
  FM190900 18010KT 4SM -RA BKN015 OVC020
  FM191400 18008KT P6SM -RA BKN020 OVC040
W 18 443' KPWT TAF KPWT 181732Z 1818/1918 18013G20KT P6SM -RA BKN004 BKN040 OVC050
  FM182100 18020G30KT P6SM -RA SCT008 BKN020 OVC035
  FM190300 19012G22KT 2SM RA BR BKN008 OVC018
  FM190900 18010KT 4SM -RA BKN015 OVC020
  FM191400 18008KT P6SM -RA BKN020 OVC040
N 22 607' KPAE TAF KPAE 181732Z 1818/1918 14013G20KT P6SM -RA BKN040 OVC050
  FM182000 18025G35KT P6SM -RA BKN025 OVC035
  FM190300 19014G24KT P6SM RA BKN018 OVC025
  FM190600 18010KT P6SM -RA BKN015 OVC020
  FM191400 18010KT P6SM -RA BKN020 OVC040
S 24 322' KTCM TAF
  AMD KTCM 181558Z 1815/1919 18009KT 9999 BKN030 BKN100 QNH2985INS
  BECMG 1817/1818 19012G18KT 9000 -SHRA BKN020 OVC040 510009 QNH2979INS
  TEMPO 1821/1903 20020G30KT 8000 -RA BKN010 OVC040 520009
  BECMG 1902/1903 20012G20KT 9000 -SHRA BKN020 OVC040 510009 QNH2958INS
  BECMG 1911/1912 19012KT 9000 -SHRA BKN020 OVC030 QNH2955INS TX15/1821Z TN07/1913Z
S 29 305' KGRF TAF
  AMD KGRF 181832Z 1818/1919 13012G18KT 9000 -SHRA BKN020 OVC040 510009 QNH2979INS
  TEMPO 1821/1903 18020G30KT 8000 -RA BKN010 OVC040 520009
  BECMG 1902/1903 20012G20KT 9000 -SHRA BKN020 OVC040 510009 QNH2958INS
  BECMG 1911/1912 19012KT 9000 -SHRA BKN020 OVC030 QNH2955INS TX15/1821Z TN07/1913Z
SW 41 207' KOLM TAF KOLM 181732Z 1818/1918 18010KT 3SM -RA BR SCT020 OVC030
  FM181900 18018G28KT 3SM -RA BR OVC015
  FM190000 20013KT 2SM RA BR OVC010
  FM190600 20010KT 4SM -RA BR BKN015 OVC025
NW 59 291' KCLM TAF KCLM 181732Z 1818/1918 VRB03KT 4SM -RA BR FEW005 BKN060 OVC080
  FM182300 27005KT 4SM -RA BR OVC015
  FM190600 27007KT P6SM VCSH SCT030 BKN080
SW 74 17' KHQM TAF KHQM 181732Z 1818/1918 14020G30KT 4SM -RA OVC012
  FM182000 18025G40KT 1SM RA BR OVC008
  FM190600 19020G32KT 2SM -RA BR SCT008 OVC012
  FM190900 19012KT 4SM -RA SCT020 OVC040
N 76 170' KBLI TAF KBLI 181732Z 1818/1918 14025G35KT 6SM -RA BR BKN025 OVC060
  TEMPO 1821/1901 4SM RA BR BKN020
  FM190100 16012KT P6SM -RA BKN025 OVC040
  FM190500 17010KT P6SM -RA SCT030 OVC060
E 85 1248' KEAT TAF COR KEAT 181745Z 1818/1918 26004KT P6SM BKN100 OVC200
  FM181900 17006KT P6SM -RA OVC060
  FM190200 27011KT P6SM BKN080 OVC150
  FM190700 28010KT P6SM -SHRA OVC050
  FM191100 VRB05KT P6SM BKN100 OVC150
SE 92 1098' KYKM KYKM 181722Z 1818/1918 20008KT P6SM SCT070 BKN100
  FM182100 22012G22KT P6SM SCT070 OVC100
  FM190500 24008KT P6SM SCT070 OVC100
  FM191200 26005KT P6SM -SHRA BKN070 OVC090
Area forecast:
000
FAUS46 KKCI 101945
FA6W  
SFOC FA 101945
SYNOPSIS AND VFR CLDS/WX
SYNOPSIS VALID UNTIL 111400
CLDS/WX VALID UNTIL 110800...OTLK VALID 110800-111400
WA OR CA AND CSTL WTRS
.
SEE AIRMET SIERRA FOR IFR CONDS AND MTN OBSCN.
TS IMPLY SEV OR GTR TURB SEV ICE LLWS AND IFR CONDS.
NON MSL HGTS DENOTED BY AGL OR CIG.
.
SYNOPSIS...UPR LVL TROF WAS LOCATED NR 130W. MOIST SWLY FLOW
EXTDS FROM PAC NW EWD INTO NRN ROCKIES. HIGH PRES RIDGE WAS OVR
MUCH OF THE REST OF THE AREA. BY 14Z...UPR LVL TROF WILL EXTD
FROM WA-OR SWD INTO CA.  ..STREIB..
.
WA CASCDS WWD
CSTL SXNS
CSTLN-INLAND...SCT-BKN025 BKN035-050 TOPS 120-140. ISOL -SHRA.
   OTLK...MVFR CIGS SHRA BR.
PUGET SOUND-INTR VLY...SCT-BKN020 BKN-OVC035-050 TOPS 160 BKN CI.
   WDLY SCT -SHRA. OTLK...MVFR CIGS SHRA.
CASCDS...BKN-OVC050-070 TOPS FL180. BKN CI ABV. WDLY SCT -SHRA.
   OTLK...MVFR CIGS SHRA.
.
WA E OF CASCDS
CNTRL WA...SCT140 OVC CI. BECMG 2302 SCT080 BKN120 LYRD FL240.
   OTLK...VFR.
ERN WA...SCT-BKN140-160 LYRD FL240. BECMG 0508 BKN080 OVC120
   LYRD FL240 ISOL -SHRA DVLPG. OTLK...VFR.
.
OR CASCDS WWD
CSTL SXNS
CSTLN-INLAND...SCT-BKN020 BKN-OVC035-050 TOPS FL180. WDLY SCT
   -SHRA. OTLK...MVFR CIGS SHRA.
WILLAMETTE VLY/SWRN INTR...SCT-BKN020 BKN-OVC035-050 TOPS FL180.
   WDLY SCT -SHRA. OTLK...MVFR CIGS SHRA.
CASCDS...SCT-BKN060 BKN-OVC080-100 TOPS FL180 ISOL -SHRA.
   OTLK...MVFR CIGS SHRA.
.
OR E OF CASCDS
CNTRL...SCT100-120 BKN150 LYRD FL240. OTLK...VFR.
ERN...SCT130-150 BKN CI. BECMG 0205 OVC120-140 LYRD FL240.
   OTLK...VFR.
.
NRN CA...STS-SAC-TVL LN NWD
CSTL SXNS...
   FOT NWD...SCT025 BKN CI ABV. BECMG 0205 SCT020 OVC050 TOPS
      160. ISOL -SHRA. OTLK...IFR CIGS.
   S OF FOT...SCT-BKN010 TOPS 030-040. OTLK...IFR CIGS.
REST OF AREA...SKC OCNL SCT CI. OCNL VYS 3-5SM FU HZ.
   OTLK...VFR.
SAC VLY...
   NRN AND CNTRL SXNS...SKC. OTLK...VFR.
   SRN SXNS...SKC. OCNL VIS 3-5SM FU HZ. OTLK...MVFR FU HZ.
SHASTA-SISKIYOUS-NERN CA...
NRN SIERRAS...SKC OCNL SCT CI. WINDS SLY G25KT. OTLK...VFR WIND.
.
CNTRL CA
CSTL SXNS...
   CSTLN...SKC OCNL SCT010. BECMG 0508 OCNL CIGS BKN-SCT010 TOPS
      020-030. OTLK...IFR CIGS.
   INLAND...SKC. OTLK...VFR BECMG 1114 IFR CIGS BR.
SAN JOAQUIN VLY...SKC. OTLK...VFR.
SRN SIERRAS..SKC. OTLK...VFR.
.
SRN CA..VBG-NID-60NNW BIH LN SWD
CSTL SXNS...
   CSTLN...
      EXTRM SRN SXNS...SKC. BECMG 0205 SCT010. BECMG 0508 CIGS
         BKN-OVC010 TOPS 030. OTLK...IFR CIGS.
      REST OF AREA...SKC. OTLK...VFR BECMG 0811 IFR CIGS BR.
   INLAND...SKC OCNL FEW CI. OTLK...VFR.
INTR MTNS-MOJAVE-SRN DESERTS...SKC OCNL FEW CI. OTLK...VFR.
.
CSTL WTRS
WA...SCT-BKN035-050 TOPS 100-120. ISOL -SHRA. OTLK...VFR.
OR...
NWRN HLF...SCT-BKN035-050 TOPS 100-120. ISOL -SHRA. OTLK...VFR.
SERN HLF...SCT-BKN025 BKN035-050 TOPS FL180 BKN CI ABV. WDLY SCT
   -SHRA. OTLK...MVFR CIGS SHRA.
CA...
NRN CA...
   FOT NWD...SCT025 BKN CI ABV. BECMG 0205 SCT020 OVC050 TOPS
      160. ISOL -SHRA. OTLK...IFR CIGS.
   S OF FOT...SCT-BKN010 TOPS 030-040. OTLK...IFR CIGS.
CNTRL CA...SCT-BKN010 TOPS 030-040. OTLK...IFR CIGS.
SRN CA...
   OUTER CSTL WTRS...CIGS BKN010-020 TOPS 030-050.
      OTLK...IFR CIGS.
   ADJ CSTL WTRS...SKC. OCNL AGL SCT010. OTLK...VFR BECMG 0811
      IFR CIGS BR.
.
THE AREA FORECAST WILL TERMINATE AT 2359Z ON 10 OCTOBER 2017. IN
PLACE OF THE AREA FORECAST...PLEASE SEE THE GRAPHICAL FORECAST AT
WWW.AVIATIONWEATHER.GOV/GFA. GRAPHICAL AND TEXT AIRMETS WILL
CONTINUE AS REGULARLY SCHEDULED.
....

Shortcut to this page: http://wxbay.com.

Data may contain errors.